createdAt,value
2018-06-21T00:00:55.066Z,4.60
2018-06-21T00:03:23.829Z,4.60
2018-06-21T00:05:52.773Z,4.83
2018-06-21T00:08:21.714Z,5.00
2018-06-21T00:10:50.480Z,4.93
2018-06-21T00:13:19.318Z,5.10
2018-06-21T00:15:48.090Z,5.17
2018-06-21T00:18:16.944Z,4.70
2018-06-21T00:20:45.752Z,4.47
2018-06-21T00:23:14.539Z,5.10
2018-06-21T00:25:43.470Z,5.20
2018-06-21T00:28:12.535Z,5.47
2018-06-21T00:30:41.450Z,4.95
2018-06-21T00:33:10.406Z,4.50
2018-06-21T00:35:39.308Z,6.00
2018-06-21T00:38:08.103Z,5.23
2018-06-21T00:40:37.186Z,5.80
2018-06-21T00:43:06.015Z,6.23
2018-06-21T00:45:35.058Z,6.40
2018-06-21T00:48:03.881Z,6.10
2018-06-21T00:50:32.681Z,6.03
2018-06-21T00:53:01.648Z,5.77
2018-06-21T00:55:41.632Z,5.30
2018-06-21T00:58:10.596Z,5.30
2018-06-21T01:00:39.494Z,5.20
2018-06-21T01:03:08.430Z,5.10
2018-06-21T01:05:37.323Z,5.77
2018-06-21T01:08:06.314Z,5.33
2018-06-21T01:10:35.233Z,5.60
2018-06-21T01:13:04.224Z,5.73
2018-06-21T01:15:33.083Z,5.10
2018-06-21T01:18:01.954Z,5.63
2018-06-21T01:20:30.779Z,5.83
2018-06-21T01:22:59.856Z,5.83
2018-06-21T01:25:28.745Z,6.20
2018-06-21T01:27:57.510Z,6.13
2018-06-21T01:30:26.285Z,5.23
2018-06-21T01:32:55.197Z,6.13
2018-06-21T01:35:24.155Z,5.97
2018-06-21T01:37:53.008Z,6.00
2018-06-21T01:40:21.919Z,5.90
2018-06-21T01:42:50.670Z,6.03
2018-06-21T01:45:19.546Z,6.20
2018-06-21T01:47:48.434Z,6.70
2018-06-21T01:50:17.214Z,5.83
2018-06-21T01:52:45.965Z,5.83
2018-06-21T01:55:14.720Z,5.67
2018-06-21T01:57:43.544Z,6.07
2018-06-21T02:00:12.327Z,6.47
2018-06-21T02:02:41.066Z,5.83
2018-06-21T02:05:09.843Z,6.00
2018-06-21T02:07:39.227Z,6.43
2018-06-21T02:10:08.562Z,6.10
2018-06-21T02:12:37.498Z,6.60
2018-06-21T02:15:06.598Z,6.50
2018-06-21T02:17:35.524Z,6.57
2018-06-21T02:20:04.464Z,7.13
2018-06-21T02:22:33.474Z,6.90
2018-06-21T02:25:02.352Z,6.60
2018-06-21T02:27:31.182Z,6.57
2018-06-21T02:29:59.950Z,6.63
2018-06-21T02:32:28.825Z,6.50
2018-06-21T02:34:57.652Z,6.67
2018-06-21T02:37:26.482Z,7.07
2018-06-21T02:39:55.312Z,7.05
2018-06-21T02:42:24.023Z,7.57
2018-06-21T02:44:52.839Z,7.63
2018-06-21T02:47:21.717Z,7.97
2018-06-21T02:49:50.610Z,7.58
2018-06-21T02:52:19.456Z,7.30
2018-06-21T02:54:48.259Z,7.83
2018-06-21T02:57:17.046Z,7.77
2018-06-21T02:59:46.177Z,7.30
2018-06-21T03:02:15.069Z,7.57
2018-06-21T03:04:43.866Z,7.40
2018-06-21T03:07:12.675Z,8.43
2018-06-21T03:09:41.472Z,7.80
2018-06-21T03:12:15.578Z,8.90
2018-06-21T03:14:44.515Z,7.23
2018-06-21T03:17:13.321Z,7.60
2018-06-21T03:19:42.378Z,7.58
2018-06-21T03:22:11.049Z,7.33
2018-06-21T03:24:40.075Z,7.37
2018-06-21T03:27:09.201Z,6.27
2018-06-21T03:29:38.551Z,6.93
2018-06-21T03:32:07.283Z,6.70
2018-06-21T03:34:36.060Z,6.70
2018-06-21T03:37:04.915Z,6.73
2018-06-21T03:39:34.573Z,6.20
2018-06-21T03:42:03.418Z,6.70
2018-06-21T03:44:31.842Z,6.73
2018-06-21T03:47:00.667Z,6.70
2018-06-21T03:49:29.452Z,6.17
2018-06-21T03:51:58.275Z,6.33
2018-06-21T03:54:27.118Z,7.23
2018-06-21T03:56:56.264Z,6.60
2018-06-21T03:59:25.116Z,6.87
2018-06-21T04:01:53.892Z,6.93
2018-06-21T04:04:22.732Z,7.57
2018-06-21T04:06:51.657Z,6.70
2018-06-21T04:09:20.428Z,6.73
2018-06-21T04:11:49.286Z,6.30
2018-06-21T04:14:18.083Z,6.70
2018-06-21T04:16:46.886Z,7.00
2018-06-21T04:19:15.841Z,6.43
2018-06-21T04:21:44.763Z,6.63
2018-06-21T04:24:13.558Z,5.80
2018-06-21T04:26:46.266Z,5.83
2018-06-21T04:29:15.096Z,6.57
2018-06-21T04:34:40.533Z,6.73
2018-06-21T04:37:09.327Z,6.63
2018-06-21T04:39:38.144Z,7.13
2018-06-21T04:42:06.968Z,6.07
2018-06-21T04:44:35.709Z,7.10
2018-06-21T04:47:04.165Z,6.17
2018-06-21T04:49:33.154Z,5.40
2018-06-21T04:52:01.931Z,5.57
2018-06-21T04:54:30.726Z,5.43
2018-06-21T04:56:59.669Z,6.80
2018-06-21T04:59:34.738Z,5.90
2018-06-21T05:02:04.132Z,5.70
2018-06-21T05:04:33.026Z,5.47
2018-06-21T05:07:01.867Z,5.83
2018-06-21T05:09:30.792Z,5.17
2018-06-21T05:11:59.884Z,5.22
2018-06-21T05:14:28.636Z,5.17
2018-06-21T05:16:57.465Z,5.60
2018-06-21T05:19:26.243Z,5.70
2018-06-21T05:21:55.079Z,5.50
2018-06-21T05:24:23.856Z,5.80
2018-06-21T05:26:52.851Z,4.92
2018-06-21T05:29:21.837Z,5.70
2018-06-21T05:31:50.603Z,4.90
2018-06-21T05:34:19.463Z,4.83
2018-06-21T05:36:48.257Z,5.10
2018-06-21T05:39:17.109Z,4.62
2018-06-21T05:41:45.856Z,4.80
2018-06-21T05:44:14.651Z,4.50
2018-06-21T05:46:43.566Z,4.87
2018-06-21T05:49:12.343Z,4.90
2018-06-21T05:51:41.184Z,4.53
2018-06-21T05:54:10.067Z,4.37
2018-06-21T05:56:39.052Z,4.42
2018-06-21T05:59:07.799Z,4.10
2018-06-21T06:01:36.609Z,4.87
2018-06-21T06:04:05.873Z,4.78
2018-06-21T06:06:34.907Z,4.15
2018-06-21T06:09:04.072Z,3.77
2018-06-21T06:11:32.878Z,4.50
2018-06-21T06:14:08.774Z,4.62
2018-06-21T06:16:37.994Z,4.20
2018-06-21T06:19:06.800Z,4.08
2018-06-21T06:21:36.657Z,3.87
2018-06-21T06:24:05.424Z,3.75
2018-06-21T06:26:34.317Z,4.10
2018-06-21T06:29:03.028Z,4.30
2018-06-21T06:31:31.853Z,3.58
2018-06-21T06:34:00.628Z,3.50
2018-06-21T06:36:28.962Z,3.35
2018-06-21T06:39:07.395Z,4.08
2018-06-21T06:41:36.177Z,3.70
2018-06-21T06:44:05.026Z,4.22
2018-06-21T06:46:33.834Z,3.70
2018-06-21T06:49:02.684Z,3.80
2018-06-21T06:51:31.466Z,3.42
2018-06-21T06:54:00.321Z,3.22
2018-06-21T06:56:29.284Z,3.98
2018-06-21T06:58:58.287Z,3.52
2018-06-21T07:01:27.124Z,3.30
2018-06-21T07:03:56.100Z,3.42
2018-06-21T07:06:25.089Z,2.83
2018-06-21T07:08:54.292Z,3.00
2018-06-21T07:11:23.258Z,3.00
2018-06-21T07:13:52.151Z,2.80
2018-06-21T07:16:21.002Z,2.72
2018-06-21T07:18:49.396Z,2.85
2018-06-21T07:21:18.511Z,3.00
2018-06-21T07:23:47.271Z,3.30
2018-06-21T07:26:16.151Z,3.10
2018-06-21T07:28:45.066Z,3.30
2018-06-21T07:31:14.063Z,3.02
2018-06-21T07:33:42.971Z,3.42
2018-06-21T07:36:12.008Z,3.47
2018-06-21T07:38:40.873Z,2.98
2018-06-21T07:41:09.551Z,3.98
2018-06-21T07:43:38.556Z,3.15
2018-06-21T07:46:07.467Z,3.40
2018-06-21T07:48:36.374Z,3.30
2018-06-21T07:51:05.190Z,3.40
2018-06-21T07:53:34.030Z,3.35
2018-06-21T07:56:02.678Z,3.00
2018-06-21T07:58:31.576Z,3.10
2018-06-21T08:01:00.332Z,2.80
2018-06-21T08:03:29.411Z,3.20
2018-06-21T08:05:58.163Z,3.30
2018-06-21T08:08:26.991Z,3.10
2018-06-21T08:10:56.509Z,3.10
2018-06-21T08:13:25.321Z,3.58
2018-06-21T08:15:54.135Z,3.08
2018-06-21T08:18:22.953Z,3.52
2018-06-21T08:20:51.727Z,3.05
2018-06-21T08:23:20.520Z,2.77
2018-06-21T08:25:49.367Z,2.67
2018-06-21T08:28:18.224Z,2.90
2018-06-21T08:30:47.052Z,2.98
2018-06-21T08:33:15.877Z,2.92
2018-06-21T08:35:44.715Z,3.10
2018-06-21T08:38:13.523Z,3.20
2018-06-21T08:40:42.346Z,2.60
2018-06-21T08:43:11.194Z,2.37
2018-06-21T08:45:40.067Z,3.00
2018-06-21T08:48:08.979Z,2.80
2018-06-21T08:50:37.837Z,2.50
2018-06-21T08:53:06.710Z,2.72
2018-06-21T08:55:35.702Z,2.27
2018-06-21T08:58:04.111Z,2.25
2018-06-21T09:00:33.258Z,2.17
2018-06-21T09:03:02.084Z,2.52
2018-06-21T09:05:30.963Z,2.27
2018-06-21T09:07:59.811Z,2.55
2018-06-21T09:10:28.593Z,2.50
2018-06-21T09:12:57.464Z,2.50
2018-06-21T09:15:26.303Z,2.50
2018-06-21T09:17:55.298Z,2.50
2018-06-21T09:20:24.762Z,2.88
2018-06-21T09:22:53.577Z,2.58
2018-06-21T09:25:22.326Z,2.67
2018-06-21T09:27:51.159Z,2.70
2018-06-21T09:30:19.988Z,2.77
2018-06-21T09:32:48.890Z,2.67
2018-06-21T09:35:17.678Z,2.60
2018-06-21T09:37:51.582Z,2.65
2018-06-21T09:40:25.592Z,5.45
2018-06-21T09:42:59.566Z,2.15
2018-06-21T09:45:33.554Z,2.30
2018-06-21T09:48:07.580Z,2.50
2018-06-21T09:50:36.239Z,2.60
2018-06-21T09:53:04.960Z,3.02
2018-06-21T09:55:33.606Z,2.75
2018-06-21T09:58:02.435Z,2.30
2018-06-21T10:00:36.334Z,2.80
2018-06-21T10:03:05.215Z,2.47
2018-06-21T10:05:34.033Z,2.40
2018-06-21T10:08:03.013Z,2.80
2018-06-21T10:10:31.796Z,2.58
2018-06-21T10:13:00.695Z,2.58
2018-06-21T10:15:29.550Z,2.12
2018-06-21T10:18:00.803Z,2.35
2018-06-21T10:20:29.686Z,2.30
2018-06-21T10:22:58.545Z,2.37
2018-06-21T10:25:27.420Z,3.08
2018-06-21T10:27:56.283Z,2.40
2018-06-21T10:30:25.065Z,2.87
2018-06-21T10:32:54.090Z,2.50
2018-06-21T10:35:23.065Z,3.40
2018-06-21T10:37:51.871Z,3.42
2018-06-21T10:40:20.648Z,3.20
2018-06-21T10:42:49.638Z,3.00
2018-06-21T10:45:18.510Z,2.95
2018-06-21T10:47:47.430Z,2.60
2018-06-21T10:50:16.285Z,2.58
2018-06-21T10:52:45.136Z,2.50
2018-06-21T10:55:14.044Z,2.80
2018-06-21T10:57:42.872Z,2.37
2018-06-21T11:00:11.662Z,2.50
2018-06-21T11:02:40.476Z,2.55
2018-06-21T11:05:09.607Z,2.50
2018-06-21T11:07:38.617Z,2.50
2018-06-21T11:10:07.475Z,2.52
2018-06-21T11:12:36.269Z,2.70
2018-06-21T11:15:05.038Z,3.00
2018-06-21T11:17:33.888Z,2.90
2018-06-21T11:20:02.702Z,2.52
2018-06-21T11:22:31.484Z,2.47
2018-06-21T11:25:00.611Z,2.50
2018-06-21T11:27:29.450Z,2.87
2018-06-21T11:29:58.418Z,2.90
2018-06-21T11:32:27.340Z,2.90
2018-06-21T11:34:56.112Z,3.30
2018-06-21T11:37:24.864Z,2.80
2018-06-21T11:39:53.686Z,2.80
2018-06-21T11:42:22.466Z,3.15
2018-06-21T11:44:51.180Z,2.80
2018-06-21T11:47:20.007Z,3.10
2018-06-21T11:49:48.801Z,2.80
2018-06-21T11:52:17.608Z,2.83
2018-06-21T11:54:46.431Z,3.22
2018-06-21T11:57:15.372Z,2.92
2018-06-21T11:59:44.188Z,3.40
2018-06-21T12:02:13.065Z,2.90
2018-06-21T12:04:42.171Z,3.15
2018-06-21T12:07:11.040Z,2.90
2018-06-21T12:09:40.249Z,3.00
2018-06-21T12:12:09.176Z,3.10
2018-06-21T12:14:38.078Z,3.20
2018-06-21T12:17:06.765Z,2.90
2018-06-21T12:19:35.581Z,3.10
2018-06-21T12:22:04.407Z,2.77
2018-06-21T12:24:33.384Z,3.05
2018-06-21T12:27:02.151Z,2.80
2018-06-21T12:29:30.978Z,2.83
2018-06-21T12:32:00.445Z,2.60
2018-06-21T12:34:29.190Z,2.10
2018-06-21T12:36:58.055Z,2.05
2018-06-21T12:39:26.909Z,1.90
2018-06-21T12:41:55.806Z,1.90
2018-06-21T12:44:24.973Z,2.20
2018-06-21T12:46:54.133Z,1.90
2018-06-21T12:49:23.173Z,1.90
2018-06-21T12:51:51.913Z,1.90
2018-06-21T12:54:20.876Z,2.00
2018-06-21T12:56:49.601Z,2.00
2018-06-21T12:59:18.333Z,2.10
2018-06-21T13:01:47.329Z,2.10
2018-06-21T13:04:16.285Z,2.10
2018-06-21T13:06:48.355Z,1.70
2018-06-21T13:09:28.245Z,2.00
2018-06-21T13:12:36.422Z,1.90
2018-06-21T13:15:05.953Z,1.90
2018-06-21T13:17:34.991Z,1.92
2018-06-21T13:20:04.828Z,2.30
2018-06-21T13:22:33.648Z,2.20
2018-06-21T13:25:02.397Z,2.15
2018-06-21T13:27:31.172Z,2.02
2018-06-21T13:30:00.001Z,1.80
2018-06-21T13:32:28.810Z,1.90
2018-06-21T13:34:57.722Z,2.17
2018-06-21T13:37:26.497Z,2.10
2018-06-21T13:39:55.375Z,2.15
2018-06-21T13:42:24.364Z,2.10
2018-06-21T13:44:53.238Z,1.95
2018-06-21T13:47:22.140Z,2.40
2018-06-21T13:49:51.008Z,2.15
2018-06-21T13:52:20.066Z,2.17
2018-06-21T13:54:48.878Z,2.10
2018-06-21T13:57:17.574Z,2.33
2018-06-21T13:59:46.341Z,2.62
2018-06-21T14:02:15.138Z,2.75
2018-06-21T14:04:43.850Z,2.85
2018-06-21T14:07:12.268Z,2.77
2018-06-21T14:09:41.111Z,3.02
2018-06-21T14:12:09.880Z,2.95
2018-06-21T14:14:38.793Z,2.90
2018-06-21T14:17:07.651Z,2.92
2018-06-21T14:19:36.558Z,3.70
2018-06-21T14:22:05.330Z,4.65
2018-06-21T14:24:34.091Z,4.33
2018-06-21T14:27:02.901Z,3.80
2018-06-21T14:29:31.663Z,3.23
2018-06-21T14:32:00.596Z,3.70
2018-06-21T14:34:29.440Z,3.40
2018-06-21T14:36:58.413Z,3.30
2018-06-21T14:39:27.240Z,3.72
2018-06-21T14:41:56.020Z,3.23
2018-06-21T14:44:24.811Z,4.30
2018-06-21T14:46:53.683Z,3.27
2018-06-21T14:49:22.545Z,3.70
2018-06-21T14:51:51.325Z,3.20
2018-06-21T14:54:20.153Z,2.80
2018-06-21T14:56:48.926Z,2.30
2018-06-21T14:59:17.892Z,2.70
2018-06-21T15:01:46.666Z,2.10
2018-06-21T15:04:15.664Z,2.10
2018-06-21T15:06:44.471Z,1.87
2018-06-21T15:09:14.158Z,1.90
2018-06-21T15:11:43.013Z,2.02
2018-06-21T15:14:11.933Z,2.20
2018-06-21T15:16:40.825Z,2.37
2018-06-21T15:19:09.546Z,2.00
2018-06-21T15:21:38.405Z,2.10
2018-06-21T15:24:07.253Z,2.53
2018-06-21T15:26:35.716Z,1.97
2018-06-21T15:29:04.576Z,2.23
2018-06-21T15:31:33.355Z,2.20
2018-06-21T15:34:06.030Z,2.17
2018-06-21T15:36:38.510Z,2.87
2018-06-21T15:39:18.454Z,2.63
2018-06-21T15:41:47.245Z,2.95
2018-06-21T15:44:21.623Z,2.80
2018-06-21T15:46:50.627Z,2.90
2018-06-21T15:49:21.144Z,3.50
2018-06-21T15:51:50.828Z,3.40
2018-06-21T15:54:33.233Z,3.03
2018-06-21T15:57:01.989Z,3.70
2018-06-21T15:59:30.752Z,3.80
2018-06-21T16:01:59.695Z,3.87
2018-06-21T16:04:28.819Z,4.20
2018-06-21T16:07:04.354Z,3.93
2018-06-21T16:09:33.166Z,3.60
2018-06-21T16:12:01.591Z,4.93
2018-06-21T16:14:30.332Z,4.57
2018-06-21T16:19:57.967Z,4.77
2018-06-21T16:22:26.838Z,4.50
2018-06-21T16:24:56.601Z,3.87
2018-06-21T16:27:25.374Z,3.70
2018-06-21T16:29:58.037Z,3.60
2018-06-21T16:32:26.997Z,3.87
2018-06-21T16:35:01.428Z,3.60
2018-06-21T16:37:30.225Z,3.20
2018-06-21T16:39:58.986Z,3.43
2018-06-21T16:42:27.842Z,2.70
2018-06-21T16:44:56.960Z,3.03
2018-06-21T16:47:25.873Z,3.00
2018-06-21T16:49:54.614Z,2.30
2018-06-21T16:52:23.601Z,2.30
2018-06-21T16:54:52.409Z,2.40
2018-06-21T16:57:20.873Z,2.30
2018-06-21T16:59:49.742Z,2.27
2018-06-21T17:02:18.613Z,2.37
2018-06-21T17:04:51.467Z,2.10
2018-06-21T17:07:20.589Z,1.93
2018-06-21T17:09:49.538Z,1.93
2018-06-21T17:12:18.484Z,1.70
2018-06-21T17:14:47.294Z,1.90
2018-06-21T17:17:16.184Z,1.87
2018-06-21T17:19:45.061Z,2.27
2018-06-21T17:22:13.969Z,1.67
2018-06-21T17:24:42.761Z,1.93
2018-06-21T17:27:11.667Z,2.40
2018-06-21T17:29:40.472Z,1.70
2018-06-21T17:32:08.927Z,1.70
2018-06-21T17:34:37.824Z,1.90
2018-06-21T17:37:07.127Z,2.00
2018-06-21T17:39:35.991Z,1.90
2018-06-21T17:42:04.915Z,1.80
2018-06-21T17:44:33.358Z,1.70
2018-06-21T17:47:02.451Z,1.50
2018-06-21T17:49:31.202Z,1.70
2018-06-21T17:52:07.749Z,1.50
2018-06-21T17:54:36.505Z,1.60
2018-06-21T17:57:05.311Z,2.10
2018-06-21T17:59:34.081Z,1.50
2018-06-21T18:02:02.954Z,1.30
2018-06-21T18:04:31.770Z,1.30
2018-06-21T18:07:00.546Z,1.50
2018-06-21T18:09:29.373Z,1.77
2018-06-21T18:11:58.231Z,1.30
2018-06-21T18:14:27.381Z,1.50
2018-06-21T18:16:56.229Z,1.30
2018-06-21T18:19:25.105Z,1.40
2018-06-21T18:21:54.069Z,1.60
2018-06-21T18:24:23.084Z,1.40
2018-06-21T18:26:52.368Z,1.07
2018-06-21T18:29:21.205Z,1.60
2018-06-21T18:31:49.939Z,1.50
2018-06-21T18:34:18.793Z,1.40
2018-06-21T18:36:47.659Z,1.10
2018-06-21T18:39:16.417Z,1.20
2018-06-21T18:41:45.402Z,1.40
2018-06-21T18:44:14.209Z,1.80
2018-06-21T18:46:43.181Z,1.33
2018-06-21T18:49:11.992Z,1.70
2018-06-21T18:51:40.903Z,1.20
2018-06-21T18:54:09.690Z,1.50
2018-06-21T18:56:56.267Z,1.60
2018-06-21T18:59:25.013Z,1.30
2018-06-21T19:01:53.824Z,1.30
2018-06-21T19:04:26.620Z,1.20
2018-06-21T19:07:00.977Z,1.40
2018-06-21T19:09:36.183Z,1.33
2018-06-21T19:12:08.931Z,1.10
2018-06-21T19:14:47.303Z,1.43
2018-06-21T19:17:16.381Z,1.07
2018-06-21T19:22:46.065Z,1.53
2018-06-21T19:25:14.927Z,1.17
2018-06-21T19:27:43.871Z,1.67
2018-06-21T19:30:13.819Z,1.20
2018-06-21T19:32:43.870Z,1.20
2018-06-21T19:35:12.216Z,1.40
2018-06-21T19:37:41.027Z,1.20
2018-06-21T19:40:09.935Z,1.67
2018-06-21T19:42:38.973Z,1.17
2018-06-21T19:45:26.998Z,1.20
2018-06-21T19:47:56.924Z,1.57
2018-06-21T19:50:32.813Z,1.00
2018-06-21T19:53:01.785Z,1.13
2018-06-21T19:55:30.608Z,1.53
2018-06-21T19:57:59.552Z,1.13
2018-06-21T20:00:28.526Z,1.43
2018-06-21T20:03:00.116Z,1.30
2018-06-21T20:05:29.585Z,1.20
2018-06-21T20:07:59.035Z,1.40
2018-06-21T20:10:38.976Z,1.17
2018-06-21T20:13:08.848Z,1.13
2018-06-21T20:15:52.569Z,1.60
2018-06-21T20:18:22.364Z,1.50
2018-06-21T20:20:51.086Z,1.40
2018-06-21T20:23:21.049Z,1.67
2018-06-21T20:25:50.237Z,1.60
2018-06-21T20:28:19.230Z,1.37
2018-06-21T20:30:48.177Z,1.30
2018-06-21T20:33:17.049Z,1.80
2018-06-21T20:35:46.017Z,2.00
2018-06-21T20:38:14.908Z,2.60
2018-06-21T20:40:43.853Z,2.10
2018-06-21T20:43:12.691Z,1.50
2018-06-21T20:45:41.627Z,1.43
2018-06-21T20:48:10.220Z,1.90
2018-06-21T20:50:39.144Z,1.53
2018-06-21T20:53:08.036Z,1.20
2018-06-21T20:55:36.859Z,1.10
2018-06-21T20:58:06.046Z,1.23
2018-06-21T21:00:39.210Z,1.30
2018-06-21T21:03:13.436Z,1.23
2018-06-21T21:05:48.781Z,1.30
2018-06-21T21:08:17.654Z,1.10
2018-06-21T21:10:46.858Z,1.30
2018-06-21T21:13:15.695Z,1.37
2018-06-21T21:15:44.568Z,1.23
2018-06-21T21:18:13.377Z,1.40
2018-06-21T21:20:42.212Z,1.20
2018-06-21T21:23:13.149Z,1.17
2018-06-21T21:25:42.234Z,1.10
2018-06-21T21:28:11.255Z,1.27
2018-06-21T21:30:40.544Z,1.30
2018-06-21T21:33:09.360Z,1.43
2018-06-21T21:35:38.085Z,1.20
2018-06-21T21:38:11.650Z,1.20
2018-06-21T21:40:40.442Z,1.43
2018-06-21T21:43:09.274Z,1.13
2018-06-21T21:45:38.201Z,1.50
2018-06-21T21:48:07.017Z,1.47
2018-06-21T21:50:36.958Z,1.30
2018-06-21T21:53:05.500Z,1.40
2018-06-21T21:55:34.288Z,1.20
2018-06-21T21:58:03.175Z,1.67
2018-06-21T22:00:47.884Z,1.40
2018-06-21T22:03:16.752Z,1.40
2018-06-21T22:05:45.678Z,1.20
2018-06-21T22:08:14.651Z,1.30
2018-06-21T22:10:45.312Z,1.17
2018-06-21T22:13:14.531Z,1.00
2018-06-21T22:15:43.656Z,1.27
2018-06-21T22:18:12.712Z,1.60
2018-06-21T22:20:41.680Z,1.17
2018-06-21T22:23:10.509Z,1.30
2018-06-21T22:25:39.645Z,1.43
2018-06-21T22:28:08.389Z,1.10
2018-06-21T22:30:37.101Z,1.17
2018-06-21T22:33:05.982Z,1.33
2018-06-21T22:35:34.721Z,1.37
2018-06-21T22:38:03.557Z,1.30
2018-06-21T22:40:32.345Z,1.40
2018-06-21T22:43:01.162Z,1.40
2018-06-21T22:45:29.895Z,1.27
2018-06-21T22:47:59.256Z,1.13
2018-06-21T22:50:28.110Z,1.30
2018-06-21T22:52:57.226Z,1.30
2018-06-21T22:55:26.194Z,1.27
2018-06-21T22:57:55.090Z,1.40
2018-06-21T23:00:23.929Z,1.37
2018-06-21T23:02:52.800Z,1.23
2018-06-21T23:05:21.806Z,1.03
2018-06-21T23:07:50.637Z,1.23
2018-06-21T23:10:19.494Z,1.20
2018-06-21T23:12:48.391Z,1.03
2018-06-21T23:15:17.178Z,0.93
2018-06-21T23:17:45.957Z,0.97
2018-06-21T23:20:14.776Z,1.13
2018-06-21T23:22:43.628Z,1.10
2018-06-21T23:25:12.480Z,1.40
2018-06-21T23:27:41.371Z,1.23
2018-06-21T23:30:10.181Z,1.30
2018-06-21T23:32:39.127Z,1.23
2018-06-21T23:35:08.020Z,1.20
2018-06-21T23:37:36.855Z,1.10
2018-06-21T23:40:05.296Z,1.30
2018-06-21T23:42:34.202Z,1.10
2018-06-21T23:45:03.056Z,1.27
2018-06-21T23:47:31.917Z,1.20
2018-06-21T23:50:00.916Z,1.33
2018-06-21T23:52:29.912Z,1.10
2018-06-21T23:54:58.746Z,1.17
2018-06-21T23:57:27.500Z,1.10
2018-06-21T23:59:56.242Z,1.37
